Main page
METAR-TAF:

METAR-TAF

Airports :

Riviera Airport

Albenga, Italy

latitude: 44-03N, longitude: 008-07E, elevation: 45 m

Current weather observation

The report was made 54 minutes ago, at 08:50 UTC
Calm wind
Temperature 16°C
Humidity 82%
Pressure 1004 hPa
Visibility 10 km or more
Few clouds at a height of 1500 ft
Broken clouds at a height of 5000 ft

METAR: LIMG 190850Z 00000KT 9999 FEW015 BKN050 16/13 Q1004

Time: 11:44 (09:44 UTC)


TAF: missing

Weather observations and forecasts of more than 4000 airports (METAR and TAF reports).

The available stations are represented by yellow and red dots on the map.

Hover mouse over dot to see the name of the station.

Then click to see weather observations and forecasts.

To change the map : click on the green buttons with a black cross to zoom in, on the green button with a dash to zoom out, or on the green arrows for adjacent maps.


METAR-TAF: